createdAt,value
2017-10-17T00:00:19.951Z,1011.37
2017-10-17T00:01:19.869Z,1011.39
2017-10-17T00:02:19.777Z,1011.37
2017-10-17T00:03:19.701Z,1011.39
2017-10-17T00:04:19.611Z,1011.42
2017-10-17T00:05:19.530Z,1011.45
2017-10-17T00:06:19.462Z,1011.46
2017-10-17T00:07:19.377Z,1011.47
2017-10-17T00:08:19.301Z,1011.50
2017-10-17T00:09:19.219Z,1011.49
2017-10-17T00:10:19.129Z,1011.51
2017-10-17T00:11:19.055Z,1011.48
2017-10-17T00:12:19.001Z,1011.53
2017-10-17T00:13:18.900Z,1011.48
2017-10-17T00:14:18.831Z,1011.48
2017-10-17T00:15:18.741Z,1011.49
2017-10-17T00:16:18.653Z,1011.50
2017-10-17T00:17:18.573Z,1011.52
2017-10-17T00:18:18.490Z,1011.48
2017-10-17T00:19:18.408Z,1011.46
2017-10-17T00:20:18.338Z,1011.48
2017-10-17T00:21:18.258Z,1011.51
2017-10-17T00:22:18.176Z,1011.55
2017-10-17T00:23:18.098Z,1011.50
2017-10-17T00:24:18.008Z,1011.48
2017-10-17T00:25:17.922Z,1011.53
2017-10-17T00:26:17.886Z,1011.48
2017-10-17T00:27:17.764Z,1011.48
2017-10-17T00:28:17.683Z,1011.45
2017-10-17T00:29:17.604Z,1011.47
2017-10-17T00:30:17.531Z,1011.46
2017-10-17T00:31:17.447Z,1011.51
2017-10-17T00:32:17.365Z,1011.49
2017-10-17T00:33:17.295Z,1011.51
2017-10-17T00:34:17.205Z,1011.47
2017-10-17T00:35:17.121Z,1011.47
2017-10-17T00:36:17.042Z,1011.43
2017-10-17T00:37:16.962Z,1011.42
2017-10-17T00:38:16.880Z,1011.43
2017-10-17T00:39:16.800Z,1011.46
2017-10-17T00:40:16.730Z,1011.46
2017-10-17T00:41:16.649Z,1011.45
2017-10-17T00:42:16.553Z,1011.43
2017-10-17T00:43:16.477Z,1011.45
2017-10-17T00:44:16.394Z,1011.42
2017-10-17T00:45:16.317Z,1011.41
2017-10-17T00:46:16.238Z,1011.40
2017-10-17T00:47:16.162Z,1011.36
2017-10-17T00:48:16.078Z,1011.41
2017-10-17T00:49:15.995Z,1011.47
2017-10-17T00:50:15.916Z,1011.48
2017-10-17T00:51:15.836Z,1011.46
2017-10-17T00:52:15.755Z,1011.45
2017-10-17T00:53:15.684Z,1011.45
2017-10-17T00:54:15.611Z,1011.44
2017-10-17T00:55:15.508Z,1011.43
2017-10-17T00:56:15.425Z,1011.40
2017-10-17T00:57:15.356Z,1011.36
2017-10-17T00:58:15.268Z,1011.31
2017-10-17T00:59:15.186Z,1011.36
2017-10-17T01:00:15.105Z,1011.31
2017-10-17T01:01:15.056Z,1011.34
2017-10-17T01:02:14.948Z,1011.31
2017-10-17T01:03:14.869Z,1011.33
2017-10-17T01:04:14.780Z,1011.35
2017-10-17T01:05:14.708Z,1011.35
2017-10-17T01:06:14.617Z,1011.37
2017-10-17T01:07:14.537Z,1011.32
2017-10-17T01:08:14.464Z,1011.27
2017-10-17T01:09:14.534Z,1011.24
2017-10-17T01:10:14.297Z,1011.26
2017-10-17T01:11:14.213Z,1011.27
2017-10-17T01:12:14.133Z,1011.22
2017-10-17T01:13:14.048Z,1011.21
2017-10-17T01:14:13.967Z,1011.22
2017-10-17T01:15:13.884Z,1011.18
2017-10-17T01:16:13.820Z,1011.17
2017-10-17T01:17:13.733Z,1011.24
2017-10-17T01:18:13.641Z,1011.17
2017-10-17T01:19:13.561Z,1011.18
2017-10-17T01:20:13.478Z,1011.13
2017-10-17T01:21:13.402Z,1011.12
2017-10-17T01:22:13.351Z,1011.14
2017-10-17T01:23:13.244Z,1011.16
2017-10-17T01:24:13.166Z,1011.17
2017-10-17T01:25:13.076Z,1011.13
2017-10-17T01:26:12.998Z,1011.17
2017-10-17T01:27:12.933Z,1011.12
2017-10-17T01:28:12.840Z,1011.11
2017-10-17T01:29:12.766Z,1011.11
2017-10-17T01:30:12.681Z,1011.09
2017-10-17T01:31:12.600Z,1011.10
2017-10-17T01:32:12.509Z,1011.09
2017-10-17T01:33:12.436Z,1011.09
2017-10-17T01:34:12.352Z,1011.11
2017-10-17T01:35:12.263Z,1011.11
2017-10-17T01:36:12.190Z,1011.09
2017-10-17T01:37:12.114Z,1011.14
2017-10-17T01:38:12.026Z,1011.11
2017-10-17T01:39:11.945Z,1011.11
2017-10-17T01:40:11.862Z,1011.12
2017-10-17T01:41:11.782Z,1011.14
2017-10-17T01:42:11.704Z,1011.08
2017-10-17T01:43:11.622Z,1011.09
2017-10-17T01:44:11.542Z,1011.10
2017-10-17T01:45:11.457Z,1011.15
2017-10-17T01:46:11.386Z,1011.12
2017-10-17T01:47:11.301Z,1011.14
2017-10-17T01:48:11.224Z,1011.19
2017-10-17T01:49:11.138Z,1011.18
2017-10-17T01:50:11.066Z,1011.18
2017-10-17T01:51:10.986Z,1011.23
2017-10-17T01:52:10.892Z,1011.18
2017-10-17T01:53:10.815Z,1011.20
2017-10-17T01:54:10.730Z,1011.12
2017-10-17T01:55:10.646Z,1011.19
2017-10-17T01:56:10.565Z,1011.17
2017-10-17T01:57:10.501Z,1011.20
2017-10-17T01:58:10.409Z,1011.22
2017-10-17T01:59:10.325Z,1011.22
2017-10-17T02:00:10.239Z,1011.20
2017-10-17T02:01:10.159Z,1011.17
2017-10-17T02:02:10.083Z,1011.17
2017-10-17T02:03:09.994Z,1011.12
2017-10-17T02:04:09.952Z,1011.16
2017-10-17T02:05:09.858Z,1011.17
2017-10-17T02:06:09.757Z,1011.12
2017-10-17T02:07:09.683Z,1011.16
2017-10-17T02:08:09.603Z,1011.12
2017-10-17T02:09:09.513Z,1011.18
2017-10-17T02:10:09.428Z,1011.13
2017-10-17T02:11:09.357Z,1011.22
2017-10-17T02:12:09.270Z,1011.17
2017-10-17T02:13:09.190Z,1011.20
2017-10-17T02:14:09.115Z,1011.18
2017-10-17T02:15:09.028Z,1011.19
2017-10-17T02:16:08.986Z,1011.16
2017-10-17T02:17:08.860Z,1011.12
2017-10-17T02:18:08.778Z,1011.09
2017-10-17T02:19:08.700Z,1011.09
2017-10-17T02:20:08.623Z,1011.13
2017-10-17T02:21:08.546Z,1011.11
2017-10-17T02:22:08.480Z,1011.10
2017-10-17T02:23:08.373Z,1011.14
2017-10-17T02:24:08.290Z,1011.10
2017-10-17T02:25:08.217Z,1011.10
2017-10-17T02:26:08.133Z,1011.10
2017-10-17T02:27:08.049Z,1011.05
2017-10-17T02:28:07.969Z,1011.10
2017-10-17T02:29:07.891Z,1011.06
2017-10-17T02:30:07.810Z,1011.05
2017-10-17T02:31:07.720Z,1011.09
2017-10-17T02:32:07.646Z,1011.12
2017-10-17T02:33:07.562Z,1011.10
2017-10-17T02:34:07.483Z,1011.11
2017-10-17T02:35:07.409Z,1011.11
2017-10-17T02:36:07.319Z,1011.09
2017-10-17T02:37:07.247Z,1011.07
2017-10-17T02:38:07.155Z,1011.11
2017-10-17T02:39:07.080Z,1011.05
2017-10-17T02:40:06.998Z,1011.08
2017-10-17T02:41:06.912Z,1011.05
2017-10-17T02:42:06.840Z,1011.06
2017-10-17T02:43:06.750Z,1011.11
2017-10-17T02:44:06.676Z,1011.09
2017-10-17T02:45:06.589Z,1011.10
2017-10-17T02:46:06.513Z,1011.12
2017-10-17T02:47:06.430Z,1011.10
2017-10-17T02:48:06.347Z,1011.10
2017-10-17T02:49:06.259Z,1011.11
2017-10-17T02:50:06.186Z,1011.08
2017-10-17T02:51:06.096Z,1011.10
2017-10-17T02:52:06.023Z,1011.09
2017-10-17T02:53:05.943Z,1011.11
2017-10-17T02:54:05.862Z,1011.06
2017-10-17T02:55:05.780Z,1011.06
2017-10-17T02:56:05.692Z,1011.11
2017-10-17T02:57:05.617Z,1011.08
2017-10-17T02:58:05.542Z,1011.10
2017-10-17T02:59:05.449Z,1011.10
2017-10-17T03:00:05.390Z,1011.09
2017-10-17T03:01:05.292Z,1011.08
2017-10-17T03:02:05.203Z,1011.09
2017-10-17T03:03:05.124Z,1011.05
2017-10-17T03:04:05.040Z,1011.06
2017-10-17T03:05:04.956Z,1011.05
2017-10-17T03:06:04.875Z,1011.07
2017-10-17T03:07:04.812Z,1011.09
2017-10-17T03:08:04.708Z,1011.07
2017-10-17T03:09:04.634Z,1011.05
2017-10-17T03:10:04.556Z,1011.05
2017-10-17T03:11:04.469Z,1011.03
2017-10-17T03:12:04.398Z,1011.07
2017-10-17T03:13:04.324Z,1011.02
2017-10-17T03:14:04.227Z,1011.00
2017-10-17T03:15:04.145Z,1011.06
2017-10-17T03:16:04.064Z,1011.06
2017-10-17T03:17:03.983Z,1011.09
2017-10-17T03:18:03.898Z,1011.08
2017-10-17T03:19:03.855Z,1011.05
2017-10-17T03:20:03.791Z,1011.06
2017-10-17T03:21:03.664Z,1011.04
2017-10-17T03:22:03.583Z,1011.08
2017-10-17T03:23:03.501Z,1011.07
2017-10-17T03:24:03.411Z,1011.04
2017-10-17T03:25:03.332Z,1011.01
2017-10-17T03:26:03.241Z,1011.05
2017-10-17T03:27:03.166Z,1011.00
2017-10-17T03:28:03.088Z,1011.02
2017-10-17T03:29:03.007Z,1011.02
2017-10-17T03:30:02.921Z,1011.01
2017-10-17T03:31:02.837Z,1011.01
2017-10-17T03:32:02.756Z,1011.04
2017-10-17T03:33:02.686Z,1011.05
2017-10-17T03:34:02.597Z,1011.05
2017-10-17T03:35:02.517Z,1011.04
2017-10-17T03:36:02.426Z,1011.06
2017-10-17T03:37:02.355Z,1011.02
2017-10-17T03:38:02.273Z,1011.01
2017-10-17T03:39:02.190Z,1011.00
2017-10-17T03:40:02.107Z,1011.00
2017-10-17T03:41:02.025Z,1010.96
2017-10-17T03:42:01.949Z,1011.02
2017-10-17T03:43:01.857Z,1011.02
2017-10-17T03:44:01.777Z,1011.06
2017-10-17T03:45:01.698Z,1011.02
2017-10-17T03:46:01.626Z,1011.05
2017-10-17T03:47:01.529Z,1011.02
2017-10-17T03:48:01.453Z,1011.07
2017-10-17T03:49:01.370Z,1011.04
2017-10-17T03:50:01.296Z,1011.08
2017-10-17T03:51:01.205Z,1011.05
2017-10-17T03:52:01.131Z,1011.03
2017-10-17T03:53:01.046Z,1011.09
2017-10-17T03:54:00.959Z,1011.09
2017-10-17T03:55:00.907Z,1011.08
2017-10-17T03:56:00.813Z,1011.11
2017-10-17T03:57:00.719Z,1011.09
2017-10-17T03:58:00.629Z,1011.10
2017-10-17T03:59:00.555Z,1011.15
2017-10-17T04:00:00.487Z,1011.15
2017-10-17T04:01:00.386Z,1011.21
2017-10-17T04:02:00.314Z,1011.21
2017-10-17T04:03:01.100Z,1011.15
2017-10-17T04:04:00.144Z,1011.16
2017-10-17T04:05:00.063Z,1011.12
2017-10-17T04:05:59.980Z,1011.15
2017-10-17T04:06:59.899Z,1011.16
2017-10-17T04:07:59.819Z,1011.23
2017-10-17T04:08:59.741Z,1011.23
2017-10-17T04:09:59.664Z,1011.18
2017-10-17T04:10:59.578Z,1011.19
2017-10-17T04:11:59.493Z,1011.13
2017-10-17T04:12:59.407Z,1011.15
2017-10-17T04:13:59.333Z,1011.13
2017-10-17T04:14:59.250Z,1011.13
2017-10-17T04:15:59.161Z,1011.14
2017-10-17T04:16:59.084Z,1011.12
2017-10-17T04:17:58.995Z,1011.16
2017-10-17T04:18:58.918Z,1011.19
2017-10-17T04:19:58.836Z,1011.22
2017-10-17T04:20:58.753Z,1011.17
2017-10-17T04:21:58.670Z,1011.17
2017-10-17T04:22:58.590Z,1011.15
2017-10-17T04:23:58.509Z,1011.16
2017-10-17T04:24:58.425Z,1011.13
2017-10-17T04:25:58.346Z,1011.15
2017-10-17T04:26:58.259Z,1011.09
2017-10-17T04:27:58.185Z,1011.10
2017-10-17T04:28:58.098Z,1011.09
2017-10-17T04:29:58.043Z,1011.07
2017-10-17T04:30:57.934Z,1011.05
2017-10-17T04:31:57.852Z,1011.05
2017-10-17T04:32:57.766Z,1011.07
2017-10-17T04:33:57.684Z,1011.03
2017-10-17T04:34:57.614Z,1011.03
2017-10-17T04:35:57.524Z,1011.05
2017-10-17T04:36:57.437Z,1011.05
2017-10-17T04:37:57.358Z,1011.05
2017-10-17T04:38:57.285Z,1011.05
2017-10-17T04:39:57.195Z,1011.03
2017-10-17T04:40:57.117Z,1011.03
2017-10-17T04:41:57.040Z,1011.02
2017-10-17T04:42:56.949Z,1011.03
2017-10-17T04:43:56.881Z,1011.03
2017-10-17T04:44:56.820Z,1011.05
2017-10-17T04:45:56.707Z,1011.00
2017-10-17T04:46:56.633Z,1011.00
2017-10-17T04:47:56.538Z,1011.03
2017-10-17T04:48:56.454Z,1011.01
2017-10-17T04:49:56.380Z,1011.01
2017-10-17T04:50:56.294Z,1010.98
2017-10-17T04:51:56.214Z,1010.96
2017-10-17T04:52:56.135Z,1011.01
2017-10-17T04:53:56.055Z,1010.98
2017-10-17T04:54:55.969Z,1011.03
2017-10-17T04:55:55.884Z,1010.98
2017-10-17T04:56:55.799Z,1011.00
2017-10-17T04:57:55.723Z,1011.03
2017-10-17T04:58:55.641Z,1010.98
2017-10-17T04:59:55.566Z,1010.99
2017-10-17T05:00:55.481Z,1010.98
2017-10-17T05:01:55.395Z,1010.98
2017-10-17T05:02:55.316Z,1010.99
2017-10-17T05:03:55.229Z,1010.96
2017-10-17T05:04:55.144Z,1011.01
2017-10-17T05:05:55.072Z,1011.00
2017-10-17T05:06:54.980Z,1011.02
2017-10-17T05:07:54.898Z,1011.04
2017-10-17T05:08:54.824Z,1011.01
2017-10-17T05:09:54.738Z,1011.00
2017-10-17T05:10:54.655Z,1011.03
2017-10-17T05:11:54.567Z,1011.02
2017-10-17T05:12:54.492Z,1011.04
2017-10-17T05:13:54.408Z,1011.04
2017-10-17T05:14:54.335Z,1011.04
2017-10-17T05:15:54.243Z,1011.03
2017-10-17T05:16:54.155Z,1011.07
2017-10-17T05:17:54.077Z,1011.05
2017-10-17T05:18:54.011Z,1011.02
2017-10-17T05:19:53.910Z,1011.09
2017-10-17T05:20:53.832Z,1011.04
2017-10-17T05:21:53.750Z,1011.02
2017-10-17T05:22:53.666Z,1011.05
2017-10-17T05:23:53.581Z,1011.03
2017-10-17T05:24:53.503Z,1011.05
2017-10-17T05:25:53.418Z,1011.01
2017-10-17T05:26:53.344Z,1011.03
2017-10-17T05:27:53.263Z,1010.98
2017-10-17T05:28:53.172Z,1010.98
2017-10-17T05:29:53.103Z,1010.98
2017-10-17T05:30:53.020Z,1010.99
2017-10-17T05:31:52.924Z,1011.04
2017-10-17T05:32:52.845Z,1011.01
2017-10-17T05:33:52.765Z,1010.99
2017-10-17T05:34:52.676Z,1010.97
2017-10-17T05:35:52.594Z,1011.00
2017-10-17T05:36:52.514Z,1010.95
2017-10-17T05:37:52.437Z,1010.97
2017-10-17T05:38:52.357Z,1010.96
2017-10-17T05:39:52.263Z,1010.95
2017-10-17T05:40:52.180Z,1010.95
2017-10-17T05:41:52.111Z,1010.97
2017-10-17T05:42:52.022Z,1010.98
2017-10-17T05:43:51.946Z,1010.96
2017-10-17T05:44:51.853Z,1010.98
2017-10-17T05:45:51.790Z,1010.96
2017-10-17T05:46:51.708Z,1010.98
2017-10-17T05:47:51.605Z,1011.00
2017-10-17T05:48:51.564Z,1011.02
2017-10-17T05:49:51.444Z,1011.05
2017-10-17T05:50:51.358Z,1011.05
2017-10-17T05:51:51.304Z,1011.05
2017-10-17T05:52:51.200Z,1011.08
2017-10-17T05:53:51.119Z,1011.10
2017-10-17T05:54:51.042Z,1011.10
2017-10-17T05:55:50.950Z,1011.08
2017-10-17T05:56:50.882Z,1011.08
2017-10-17T05:57:50.790Z,1011.11
2017-10-17T05:58:50.705Z,1011.10
2017-10-17T05:59:50.617Z,1011.12
2017-10-17T06:00:50.539Z,1011.08
2017-10-17T06:01:50.456Z,1011.11
2017-10-17T06:02:50.375Z,1011.15
2017-10-17T06:03:50.289Z,1011.17
2017-10-17T06:04:50.204Z,1011.17
2017-10-17T06:05:50.148Z,1011.18
2017-10-17T06:06:50.059Z,1011.17
2017-10-17T06:07:49.961Z,1011.16
2017-10-17T06:08:49.879Z,1011.19
2017-10-17T06:09:49.806Z,1011.17
2017-10-17T06:10:49.714Z,1011.17
2017-10-17T06:11:49.646Z,1011.18
2017-10-17T06:12:49.548Z,1011.18
2017-10-17T06:13:49.474Z,1011.16
2017-10-17T06:14:49.389Z,1011.17
2017-10-17T06:15:49.306Z,1011.20
2017-10-17T06:16:49.218Z,1011.24
2017-10-17T06:17:49.159Z,1011.24
2017-10-17T06:18:49.060Z,1011.25
2017-10-17T06:19:48.971Z,1011.27
2017-10-17T06:20:48.911Z,1011.28
2017-10-17T06:21:48.844Z,1011.31
2017-10-17T06:22:48.730Z,1011.35
2017-10-17T06:23:48.645Z,1011.38
2017-10-17T06:24:48.565Z,1011.39
2017-10-17T06:25:48.481Z,1011.39
2017-10-17T06:26:48.406Z,1011.45
2017-10-17T06:27:48.314Z,1011.45
2017-10-17T06:28:48.230Z,1011.46
2017-10-17T06:29:48.151Z,1011.38
2017-10-17T06:30:48.074Z,1011.40
2017-10-17T06:31:48.004Z,1011.39
2017-10-17T06:32:47.912Z,1011.43
2017-10-17T06:33:47.852Z,1011.45
2017-10-17T06:34:47.736Z,1011.45
2017-10-17T06:35:47.659Z,1011.48
2017-10-17T06:36:47.598Z,1011.55
2017-10-17T06:37:47.499Z,1011.55
2017-10-17T06:38:47.419Z,1011.54
2017-10-17T06:39:47.326Z,1011.49
2017-10-17T06:40:47.264Z,1011.50
2017-10-17T06:41:47.163Z,1011.58
2017-10-17T06:42:47.090Z,1011.56
2017-10-17T06:43:47.006Z,1011.54
2017-10-17T06:44:46.919Z,1011.55
2017-10-17T06:45:46.840Z,1011.52
2017-10-17T06:46:46.758Z,1011.46
2017-10-17T06:47:46.676Z,1011.46
2017-10-17T06:48:46.596Z,1011.48
2017-10-17T06:49:46.512Z,1011.45
2017-10-17T06:50:46.444Z,1011.45
2017-10-17T06:51:46.364Z,1011.50
2017-10-17T06:52:46.271Z,1011.50
2017-10-17T06:53:46.187Z,1011.51
2017-10-17T06:54:46.107Z,1011.51
2017-10-17T06:55:46.029Z,1011.53
2017-10-17T06:56:45.941Z,1011.53
2017-10-17T06:57:45.856Z,1011.50
2017-10-17T06:58:45.778Z,1011.48
2017-10-17T06:59:45.699Z,1011.52
2017-10-17T07:00:45.615Z,1011.51
2017-10-17T07:01:45.536Z,1011.51
2017-10-17T07:02:45.456Z,1011.48
2017-10-17T07:03:45.370Z,1011.48
2017-10-17T07:04:45.305Z,1011.50
2017-10-17T07:05:45.211Z,1011.52
2017-10-17T07:06:45.131Z,1011.52
2017-10-17T07:07:45.045Z,1011.53
2017-10-17T07:08:44.968Z,1011.57
2017-10-17T07:09:44.887Z,1011.65
2017-10-17T07:10:44.804Z,1011.70
2017-10-17T07:11:44.716Z,1011.78
2017-10-17T07:12:44.633Z,1011.83
2017-10-17T07:13:44.561Z,1011.89
2017-10-17T07:14:44.473Z,1011.85
2017-10-17T07:15:44.415Z,1011.84
2017-10-17T07:16:44.307Z,1011.84
2017-10-17T07:17:44.223Z,1011.88
2017-10-17T07:18:44.147Z,1011.91
2017-10-17T07:19:44.074Z,1011.95
2017-10-17T07:20:43.985Z,1011.98
2017-10-17T07:21:43.901Z,1012.00
2017-10-17T07:22:43.822Z,1012.05
2017-10-17T07:23:43.757Z,1012.01
2017-10-17T07:24:43.674Z,1012.06
2017-10-17T07:25:43.575Z,1012.12
2017-10-17T07:26:43.508Z,1012.27
2017-10-17T07:27:43.421Z,1012.24
2017-10-17T07:28:43.343Z,1012.26
2017-10-17T07:29:43.288Z,1012.33
2017-10-17T07:30:43.187Z,1012.40
2017-10-17T07:31:43.109Z,1012.44
2017-10-17T07:32:43.039Z,1012.49
2017-10-17T07:33:42.973Z,1012.56
2017-10-17T07:34:42.867Z,1012.49
2017-10-17T07:35:42.792Z,1012.47
2017-10-17T07:36:42.718Z,1012.51
2017-10-17T07:37:42.646Z,1012.52
2017-10-17T07:38:42.561Z,1012.59
2017-10-17T07:39:42.486Z,1012.59
2017-10-17T07:40:42.399Z,1012.51
2017-10-17T07:41:42.326Z,1012.66
2017-10-17T07:42:42.259Z,1012.83
2017-10-17T07:43:42.194Z,1012.77
2017-10-17T07:44:42.098Z,1012.76
2017-10-17T07:45:42.023Z,1012.79
2017-10-17T07:46:41.946Z,1012.78
2017-10-17T07:47:41.876Z,1012.74
2017-10-17T07:48:41.802Z,1012.77
2017-10-17T07:49:41.726Z,1012.79
2017-10-17T07:50:41.650Z,1012.76
2017-10-17T07:51:41.600Z,1012.78
2017-10-17T07:52:41.512Z,1012.74
2017-10-17T07:53:41.442Z,1012.76
2017-10-17T07:54:41.361Z,1012.72
2017-10-17T07:55:41.294Z,1012.76
2017-10-17T07:56:41.205Z,1012.76
2017-10-17T07:57:41.141Z,1012.79
2017-10-17T07:58:41.067Z,1012.80
2017-10-17T07:59:40.996Z,1012.82
2017-10-17T08:00:40.924Z,1012.79
2017-10-17T08:01:40.860Z,1012.80
2017-10-17T08:02:40.795Z,1012.79
2017-10-17T08:03:40.709Z,1012.74
2017-10-17T08:04:40.653Z,1012.72
2017-10-17T08:05:40.571Z,1012.70
2017-10-17T08:06:40.502Z,1012.72
2017-10-17T08:07:40.426Z,1012.71
2017-10-17T08:08:40.364Z,1012.69
2017-10-17T08:09:40.301Z,1012.74
2017-10-17T08:10:40.223Z,1012.73
2017-10-17T08:11:40.161Z,1012.71
2017-10-17T08:12:40.079Z,1012.71
2017-10-17T08:13:40.005Z,1012.72
2017-10-17T08:14:39.945Z,1012.75
2017-10-17T08:15:39.896Z,1012.72
2017-10-17T08:16:39.799Z,1012.73
2017-10-17T08:17:39.729Z,1012.72
2017-10-17T08:18:39.669Z,1012.73
2017-10-17T08:19:39.598Z,1012.66
2017-10-17T08:20:39.520Z,1012.64
2017-10-17T08:21:39.452Z,1012.66
2017-10-17T08:22:39.387Z,1012.65
2017-10-17T08:23:39.322Z,1012.70
2017-10-17T08:24:39.249Z,1012.69
2017-10-17T08:25:39.184Z,1012.71
2017-10-17T08:26:39.109Z,1012.67
2017-10-17T08:27:39.042Z,1012.68
2017-10-17T08:28:38.973Z,1012.68
2017-10-17T08:29:38.912Z,1012.65
2017-10-17T08:30:38.832Z,1012.69
2017-10-17T08:31:38.772Z,1012.65
2017-10-17T08:32:38.709Z,1012.69
2017-10-17T08:33:38.634Z,1012.69
2017-10-17T08:34:38.563Z,1012.64
2017-10-17T08:35:38.499Z,1012.57
2017-10-17T08:36:38.428Z,1012.56
2017-10-17T08:37:38.364Z,1012.54
2017-10-17T08:38:38.294Z,1012.53
2017-10-17T08:39:38.224Z,1012.54
2017-10-17T08:40:38.157Z,1012.50
2017-10-17T08:41:38.085Z,1012.51
2017-10-17T08:42:38.017Z,1012.47
2017-10-17T08:43:37.957Z,1012.48
2017-10-17T08:44:37.917Z,1012.46
2017-10-17T08:45:37.849Z,1012.46
2017-10-17T08:46:37.753Z,1012.46
2017-10-17T08:47:37.700Z,1012.42
2017-10-17T08:48:37.634Z,1012.44
2017-10-17T08:49:37.549Z,1012.46
2017-10-17T08:50:37.486Z,1012.47
2017-10-17T08:51:37.414Z,1012.48
2017-10-17T08:52:37.347Z,1012.46
2017-10-17T08:53:37.281Z,1012.43
2017-10-17T08:54:37.225Z,1012.41
2017-10-17T08:55:37.146Z,1012.40
2017-10-17T08:56:37.078Z,1012.41
2017-10-17T08:57:37.007Z,1012.43
2017-10-17T08:58:36.956Z,1012.40
2017-10-17T08:59:36.879Z,1012.39
2017-10-17T09:00:36.819Z,1012.34
2017-10-17T09:01:36.758Z,1012.32
2017-10-17T09:02:36.681Z,1012.35
2017-10-17T09:03:36.609Z,1012.32
2017-10-17T09:04:36.542Z,1012.33
2017-10-17T09:05:36.496Z,1012.30
2017-10-17T09:06:36.407Z,1012.30
2017-10-17T09:07:36.336Z,1012.30
2017-10-17T09:08:36.279Z,1012.31
2017-10-17T09:09:36.216Z,1012.35
2017-10-17T09:10:36.143Z,1012.34
2017-10-17T09:11:36.078Z,1012.37
2017-10-17T09:12:36.014Z,1012.38
2017-10-17T09:13:35.952Z,1012.42
2017-10-17T09:14:35.873Z,1012.43
2017-10-17T09:15:35.811Z,1012.43
2017-10-17T09:16:35.762Z,1012.42
2017-10-17T09:17:35.680Z,1012.46
2017-10-17T09:18:35.610Z,1012.42
2017-10-17T09:19:35.542Z,1012.39
2017-10-17T09:20:35.480Z,1012.40
2017-10-17T09:21:35.419Z,1012.31
2017-10-17T09:22:35.344Z,1012.34
2017-10-17T09:23:35.284Z,1012.32
2017-10-17T09:24:35.211Z,1012.31
2017-10-17T09:25:35.151Z,1012.43
2017-10-17T09:26:35.083Z,1012.40
2017-10-17T09:27:35.011Z,1012.48
2017-10-17T09:28:34.937Z,1012.47
2017-10-17T09:29:34.870Z,1012.43
2017-10-17T09:30:34.822Z,1012.44
2017-10-17T09:31:34.738Z,1012.40
2017-10-17T09:32:34.673Z,1012.44
2017-10-17T09:33:34.611Z,1012.43
2017-10-17T09:34:34.549Z,1012.42
2017-10-17T09:35:34.490Z,1012.44
2017-10-17T09:36:34.406Z,1012.40
2017-10-17T09:37:34.365Z,1012.37
2017-10-17T09:38:34.287Z,1012.34
2017-10-17T09:39:34.213Z,1012.38
2017-10-17T09:40:34.142Z,1012.35
2017-10-17T09:41:34.085Z,1012.36
2017-10-17T09:42:34.012Z,1012.39
2017-10-17T09:43:33.943Z,1012.41
2017-10-17T09:44:33.896Z,1012.37
2017-10-17T09:45:33.810Z,1012.37
2017-10-17T09:46:33.744Z,1012.35
2017-10-17T09:47:33.689Z,1012.28
2017-10-17T09:48:33.641Z,1012.33
2017-10-17T09:49:33.548Z,1012.34
2017-10-17T09:50:33.482Z,1012.38
2017-10-17T09:51:33.408Z,1012.32
2017-10-17T09:52:33.344Z,1012.37
2017-10-17T09:53:33.280Z,1012.39
2017-10-17T09:54:33.218Z,1012.39
2017-10-17T09:55:33.148Z,1012.45
2017-10-17T09:56:33.093Z,1012.49
2017-10-17T09:57:33.016Z,1012.53
2017-10-17T09:58:32.950Z,1012.54
2017-10-17T09:59:32.889Z,1012.56
2017-10-17T10:00:32.815Z,1012.64
2017-10-17T10:01:32.756Z,1012.62
2017-10-17T10:02:32.699Z,1012.48
2017-10-17T10:03:32.618Z,1012.35
2017-10-17T10:04:32.556Z,1012.18
2017-10-17T10:05:32.487Z,1012.01
2017-10-17T10:06:32.427Z,1011.81
2017-10-17T10:07:32.352Z,1011.61
2017-10-17T10:08:32.317Z,1011.50
2017-10-17T10:09:32.253Z,1011.39
2017-10-17T10:10:32.201Z,1011.40
2017-10-17T10:11:32.095Z,1011.37
2017-10-17T10:12:32.029Z,1011.38
2017-10-17T10:13:31.962Z,1011.33
2017-10-17T10:14:31.891Z,1011.35
2017-10-17T10:15:31.862Z,1011.31
2017-10-17T10:16:31.765Z,1011.33
2017-10-17T10:17:31.687Z,1011.29
2017-10-17T10:18:31.623Z,1011.28
2017-10-17T10:19:31.562Z,1011.29
2017-10-17T10:20:31.484Z,1011.24
2017-10-17T10:21:31.422Z,1011.22
2017-10-17T10:22:31.361Z,1011.24
2017-10-17T10:23:31.293Z,1011.19
2017-10-17T10:24:31.217Z,1011.24
2017-10-17T10:25:31.152Z,1011.21
2017-10-17T10:26:31.082Z,1011.18
2017-10-17T10:27:31.009Z,1011.19
2017-10-17T10:28:30.949Z,1011.20
2017-10-17T10:29:30.876Z,1011.22
2017-10-17T10:30:30.806Z,1011.18
2017-10-17T10:31:30.740Z,1011.13
2017-10-17T10:32:30.675Z,1011.19
2017-10-17T10:33:30.600Z,1011.16
2017-10-17T10:34:30.559Z,1011.12
2017-10-17T10:35:30.470Z,1011.09
2017-10-17T10:36:30.399Z,1011.10
2017-10-17T10:37:30.336Z,1011.09
2017-10-17T10:38:30.254Z,1011.09
2017-10-17T10:39:30.195Z,1011.10
2017-10-17T10:40:30.118Z,1011.06
2017-10-17T10:41:30.051Z,1011.02
2017-10-17T10:42:29.981Z,1010.99
2017-10-17T10:43:29.912Z,1011.03
2017-10-17T10:44:29.840Z,1011.00
2017-10-17T10:45:29.788Z,1011.03
2017-10-17T10:46:29.706Z,1011.04
2017-10-17T10:47:29.635Z,1011.04
2017-10-17T10:48:29.564Z,1011.03
2017-10-17T10:49:29.521Z,1011.05
2017-10-17T10:50:29.441Z,1011.01
2017-10-17T10:51:29.365Z,1011.03
2017-10-17T10:52:29.299Z,1011.00
2017-10-17T10:53:29.227Z,1011.02
2017-10-17T10:54:29.153Z,1010.97
2017-10-17T10:55:29.087Z,1011.00
2017-10-17T10:56:29.036Z,1011.01
2017-10-17T10:57:28.959Z,1011.13
2017-10-17T10:58:28.886Z,1011.39
2017-10-17T10:59:28.838Z,1011.70
2017-10-17T11:00:28.749Z,1012.20
2017-10-17T11:01:28.678Z,1012.56
2017-10-17T11:02:28.617Z,1012.95
2017-10-17T11:03:28.542Z,1013.18
2017-10-17T11:04:28.481Z,1013.35
2017-10-17T11:05:28.413Z,1013.30
2017-10-17T11:06:28.351Z,1013.45
2017-10-17T11:07:28.294Z,1013.22
2017-10-17T11:08:28.220Z,1014.26
2017-10-17T11:09:28.156Z,1015.11
2017-10-17T11:10:28.099Z,1015.13
2017-10-17T11:11:28.034Z,1014.99
2017-10-17T11:12:27.967Z,1014.67
2017-10-17T11:13:27.905Z,1014.49
2017-10-17T11:14:27.840Z,1014.51
2017-10-17T11:15:27.790Z,1014.15
2017-10-17T11:16:27.720Z,1013.94
2017-10-17T11:17:27.680Z,1013.79
2017-10-17T11:18:27.594Z,1013.69
2017-10-17T11:19:27.531Z,1013.50
2017-10-17T11:20:27.475Z,1013.39
2017-10-17T11:21:27.407Z,1013.16
2017-10-17T11:22:27.347Z,1013.08
2017-10-17T11:23:27.290Z,1012.92
2017-10-17T11:24:27.222Z,1012.82
2017-10-17T11:25:27.157Z,1012.71
2017-10-17T11:26:27.101Z,1012.54
2017-10-17T11:27:27.034Z,1012.39
2017-10-17T11:28:26.965Z,1012.24
2017-10-17T11:29:26.912Z,1012.02
2017-10-17T11:30:26.846Z,1011.85
2017-10-17T11:31:26.779Z,1011.58
2017-10-17T11:32:26.741Z,1011.41
2017-10-17T11:33:26.652Z,1011.22
2017-10-17T11:34:26.609Z,1011.12
2017-10-17T11:35:26.530Z,1010.94
2017-10-17T11:36:26.459Z,1010.78
2017-10-17T11:37:26.394Z,1010.67
2017-10-17T11:38:26.326Z,1010.60
2017-10-17T11:39:26.266Z,1010.50
2017-10-17T11:40:26.190Z,1010.45
2017-10-17T11:41:26.125Z,1010.27
2017-10-17T11:42:26.057Z,1010.09
2017-10-17T11:43:25.990Z,1010.06
2017-10-17T11:44:25.930Z,1010.01
2017-10-17T11:45:25.857Z,1010.02
2017-10-17T11:46:25.789Z,1010.02
2017-10-17T11:47:25.719Z,1009.96
2017-10-17T11:48:25.649Z,1009.90
2017-10-17T11:49:25.582Z,1009.91
2017-10-17T11:50:25.532Z,1009.86
2017-10-17T11:51:25.444Z,1009.85
2017-10-17T11:52:25.376Z,1009.85
2017-10-17T11:53:25.303Z,1009.82
2017-10-17T11:54:25.256Z,1009.81
2017-10-17T11:55:25.170Z,1009.78
2017-10-17T11:56:25.105Z,1009.76
2017-10-17T11:57:25.033Z,1009.76
2017-10-17T11:58:24.976Z,1009.69
2017-10-17T11:59:24.903Z,1009.71
2017-10-17T12:00:24.829Z,1009.66
2017-10-17T12:01:24.761Z,1009.69
2017-10-17T12:02:24.693Z,1009.67
2017-10-17T12:03:24.628Z,1009.66
2017-10-17T12:04:24.553Z,1009.60